Time;durP1;ratioP1;P1;durP2;ratioP2;P2;SDS_P1;SDS_P2;PMS_P1;PMS_P2;Temp;Humidity;BMP_temperature;BMP_pressure;BME280_temperature;BME280_humidity;BME280_pressure;Samples;Min_cycle;Max_cycle;Signal;HPM_P1;HPM_P2
2022/01/24 00:00:23;;;;;;;13.15;11.45;;;8.20;99.90;;;;;;4919683;29;20282;-61
2022/01/24 00:02:54;;;;;;;12.50;10.82;;;8.30;99.90;;;;;;4913582;29;20315;-60
2022/01/24 00:05:25;;;;;;;14.90;11.30;;;8.20;99.90;;;;;;4920915;29;20206;-61
2022/01/24 00:07:58;;;;;;;11.73;9.98;;;8.10;99.90;;;;;;4924508;29;20210;-61
2022/01/24 00:10:30;;;;;;;13.55;10.40;;;8.10;99.90;;;;;;4921707;29;20207;-61
2022/01/24 00:13:26;;;;;;;13.50;12.02;;;8.10;99.90;;;;;;4922438;29;20203;-61
2022/01/24 00:16:14;;;;;;;14.20;12.32;;;8.10;99.90;;;;;;4924981;29;20218;-61
2022/01/24 00:27:09;;;;;;;15.57;12.18;;;7.90;99.90;;;;;;4915645;29;20206;-62
2022/01/24 00:29:41;;;;;;;13.15;11.82;;;7.90;99.90;;;;;;4919901;29;20229;-62
2022/01/24 00:32:13;;;;;;;14.10;12.70;;;7.90;99.90;;;;;;4911317;29;20227;-62
2022/01/24 00:34:44;;;;;;;14.65;12.30;;;7.90;99.90;;;;;;4911589;29;20603;-62
2022/01/24 00:37:15;;;;;;;15.90;12.07;;;7.80;99.90;;;;;;4916166;29;20239;-62
2022/01/24 00:39:48;;;;;;;13.13;11.82;;;7.70;99.90;;;;;;4915696;29;20222;-62
2022/01/24 00:42:28;;;;;;;13.15;11.55;;;7.70;99.90;;;;;;4920339;29;20199;-62
2022/01/24 00:45:11;;;;;;;15.98;12.15;;;7.70;99.90;;;;;;4924137;29;20218;-62
2022/01/24 00:48:03;;;;;;;14.70;12.20;;;7.70;99.90;;;;;;4919964;29;20243;-62
2022/01/24 00:54:42;;;;;;;15.52;12.75;;;7.70;99.90;;;;;;4919160;29;20211;-64
2022/01/24 00:56:54;;;;;;;13.90;12.50;;;7.60;99.90;;;;;;4923307;29;20216;-64
2022/01/24 00:59:26;;;;;;;15.02;12.90;;;7.40;99.90;;;;;;4918427;29;20298;-64
2022/01/24 01:01:57;;;;;;;12.85;11.50;;;7.30;99.90;;;;;;4920181;29;20217;-64
2022/01/24 01:04:35;;;;;;;14.65;12.30;;;7.20;99.90;;;;;;4926734;29;20210;-64
2022/01/24 01:07:07;;;;;;;13.45;11.25;;;7.10;99.90;;;;;;4920957;29;20199;-63
2022/01/24 01:18:17;;;;;;;15.75;13.00;;;6.80;99.90;;;;;;4920686;29;20211;-62
2022/01/24 01:23:41;;;;;;;17.90;16.00;;;6.70;99.90;;;;;;4914549;29;20591;-61
2022/01/24 01:26:24;;;;;;;20.83;18.45;;;6.60;99.90;;;;;;4913539;29;20269;-63
2022/01/24 01:29:27;;;;;;;20.95;17.48;;;6.50;99.90;;;;;;4915774;29;20230;-63
2022/01/24 01:32:09;;;;;;;22.65;18.50;;;6.40;99.90;;;;;;4916446;29;20202;-62
2022/01/24 01:34:59;;;;;;;21.50;16.55;;;6.30;99.90;;;;;;4911404;29;20603;-60
2022/01/24 01:52:18;;;;;;;19.10;16.20;;;6.00;99.90;;;;;;4924465;29;20198;-61
2022/01/24 01:52:34;;;;;;;16.95;15.15;;;5.80;99.90;;;;;;4880645;29;20328;-60
2022/01/24 01:55:36;;;;;;;20.15;16.80;;;5.80;99.90;;;;;;4898042;29;20215;-63
2022/01/24 01:58:09;;;;;;;20.50;17.23;;;5.70;99.90;;;;;;4899433;29;20315;-61
2022/01/24 02:00:42;;;;;;;23.40;20.27;;;5.60;99.90;;;;;;4903541;29;20211;-62
2022/01/24 02:03:15;;;;;;;22.75;20.20;;;5.70;99.90;;;;;;4902719;29;20215;-63
2022/01/24 02:05:46;;;;;;;22.20;19.90;;;5.70;99.90;;;;;;4898147;29;20210;-63
2022/01/24 02:08:18;;;;;;;26.00;23.20;;;5.70;99.90;;;;;;4901033;29;21198;-63
2022/01/24 02:10:49;;;;;;;26.92;23.15;;;5.70;99.90;;;;;;4903811;29;20227;-62
2022/01/24 02:13:21;;;;;;;22.83;19.85;;;5.70;99.90;;;;;;4900518;29;20215;-64
2022/01/24 02:16:01;;;;;;;122.68;39.63;;;5.60;99.90;;;;;;4898181;29;20226;-63
2022/01/24 02:18:39;;;;;;;23.63;21.08;;;5.60;99.90;;;;;;4902627;29;20211;-62
2022/01/24 02:21:29;;;;;;;26.92;19.73;;;5.60;99.90;;;;;;4900310;29;20223;-62
2022/01/24 02:24:10;;;;;;;25.55;21.10;;;5.30;99.90;;;;;;4917139;29;20277;-62
2022/01/24 02:26:41;;;;;;;22.00;19.25;;;5.20;99.90;;;;;;4920294;29;20944;-64
2022/01/24 02:29:21;;;;;;;23.85;20.15;;;5.10;99.90;;;;;;4914027;29;20211;-61
2022/01/24 02:31:54;;;;;;;21.60;18.30;;;5.10;99.90;;;;;;4920351;29;20210;-63
2022/01/24 02:34:33;;;;;;;20.52;18.30;;;5.00;99.90;;;;;;4912861;29;20313;-64
2022/01/24 02:37:10;;;;;;;24.27;18.77;;;4.90;99.90;;;;;;4918808;29;20215;-61
2022/01/24 02:39:56;;;;;;;21.75;18.08;;;4.90;99.90;;;;;;4924297;29;20290;-63
2022/01/24 02:48:25;;;;;;;23.52;20.08;;;4.80;99.90;;;;;;4922332;29;20238;-64
2022/01/24 02:51:24;;;;;;;22.90;20.40;;;4.80;99.90;;;;;;4922738;29;20239;-62
2022/01/24 02:53:57;;;;;;;21.02;18.58;;;4.80;99.90;;;;;;4918681;29;20210;-64
2022/01/24 02:56:29;;;;;;;23.80;20.95;;;4.70;99.90;;;;;;4921622;29;20204;-64
2022/01/24 02:58:59;;;;;;;23.33;19.95;;;4.70;99.90;;;;;;4915520;29;20230;-64
2022/01/24 03:01:30;;;;;;;27.15;21.10;;;4.60;99.90;;;;;;4919939;29;20210;-62
2022/01/24 03:04:01;;;;;;;24.90;20.40;;;4.60;99.90;;;;;;4925099;29;20273;-65
2022/01/24 03:06:32;;;;;;;26.83;22.85;;;4.60;99.90;;;;;;4924488;29;20278;-61
2022/01/24 03:09:05;;;;;;;28.17;22.33;;;4.50;99.90;;;;;;4920191;29;20207;-62
2022/01/24 03:11:58;;;;;;;30.40;23.52;;;4.60;99.90;;;;;;4924178;29;20198;-61
2022/01/24 03:14:34;;;;;;;33.85;26.23;;;4.60;99.90;;;;;;4914926;29;21640;-62
2022/01/24 03:17:07;;;;;;;571.65;101.13;;;4.60;99.90;;;;;;4928216;29;20271;-61
2022/01/24 03:19:38;;;;;;;1102.68;210.38;;;4.70;99.90;;;;;;4927722;29;20211;-62
2022/01/24 03:22:11;;;;;;;28.55;24.05;;;4.80;99.90;;;;;;4928110;29;20211;-62
2022/01/24 03:24:45;;;;;;;30.40;25.35;;;4.80;99.90;;;;;;4918444;29;20216;-61
2022/01/24 03:27:16;;;;;;;30.55;23.17;;;4.60;99.90;;;;;;4914639;29;20195;-62
2022/01/24 03:29:47;;;;;;;27.67;22.17;;;4.50;99.90;;;;;;4911789;29;20243;-62
2022/01/24 03:32:18;;;;;;;26.25;23.25;;;4.40;99.90;;;;;;4921788;29;20587;-62
2022/01/24 03:34:49;;;;;;;29.33;22.42;;;4.40;99.90;;;;;;4926431;29;20203;-62
2022/01/24 03:37:20;;;;;;;26.20;23.33;;;4.30;99.90;;;;;;4926665;29;20667;-61
2022/01/24 03:39:52;;;;;;;28.45;25.08;;;4.20;99.90;;;;;;4917885;29;20222;-60
2022/01/24 03:42:23;;;;;;;423.40;102.80;;;4.20;99.90;;;;;;4922866;29;20214;-61
2022/01/24 03:44:58;;;;;;;25.80;23.00;;;4.30;99.90;;;;;;4920442;29;20194;-62
2022/01/24 03:47:43;;;;;;;244.73;76.50;;;4.20;99.90;;;;;;4914139;29;20537;-63
2022/01/24 03:50:17;;;;;;;245.45;63.70;;;4.30;99.90;;;;;;4910742;29;20326;-62
2022/01/24 03:52:48;;;;;;;32.47;25.70;;;4.40;99.90;;;;;;4919107;29;20214;-61
2022/01/24 03:55:20;;;;;;;28.88;25.77;;;4.20;99.90;;;;;;4927047;29;20539;-61
2022/01/24 03:57:51;;;;;;;33.10;26.58;;;4.10;99.90;;;;;;4927237;29;20199;-61
2022/01/24 04:00:22;;;;;;;31.42;26.15;;;4.00;99.90;;;;;;4926902;29;20190;-63
2022/01/24 04:02:53;;;;;;;31.13;25.83;;;3.90;99.90;;;;;;4926599;29;20298;-63
2022/01/24 04:05:24;;;;;;;31.02;27.23;;;3.90;99.90;;;;;;4917459;29;20322;-62
2022/01/24 04:07:55;;;;;;;28.65;24.38;;;3.90;99.90;;;;;;4927336;29;20229;-62
2022/01/24 04:10:39;;;;;;;28.63;25.58;;;3.90;99.90;;;;;;4922712;29;20234;-62
2022/01/24 04:13:23;;;;;;;28.63;23.90;;;3.90;99.90;;;;;;4927624;29;20516;-63
2022/01/24 04:18:52;;;;;;;26.35;23.10;;;3.90;99.90;;;;;;4922745;29;20199;-61
2022/01/24 04:21:27;;;;;;;26.67;22.88;;;3.80;99.90;;;;;;4923349;29;20199;-61
2022/01/24 04:24:03;;;;;;;26.48;21.50;;;3.80;99.90;;;;;;4924220;29;20244;-62
2022/01/24 04:26:40;;;;;;;26.90;21.92;;;3.70;99.90;;;;;;4919397;29;20207;-61
2022/01/24 04:29:10;;;;;;;29.02;23.23;;;3.60;99.90;;;;;;4923949;29;20678;-61
2022/01/24 04:31:43;;;;;;;24.52;21.77;;;3.60;99.90;;;;;;4925926;29;20230;-60
2022/01/24 04:34:14;;;;;;;27.67;23.20;;;3.60;99.90;;;;;;4924338;29;20568;-62
2022/01/24 04:36:45;;;;;;;24.67;21.98;;;3.60;99.90;;;;;;4916004;29;20199;-61
2022/01/24 04:39:16;;;;;;;1630.65;349.25;;;3.60;99.90;;;;;;4917928;29;20215;-61
2022/01/24 04:41:52;;;;;;;27.10;22.85;;;3.50;99.90;;;;;;4926136;29;20318;-61
2022/01/24 04:44:47;;;;;;;26.50;21.90;;;3.50;99.90;;;;;;4926332;29;20202;-62
2022/01/24 04:47:24;;;;;;;27.92;22.98;;;3.40;99.90;;;;;;4918191;29;20215;-65
2022/01/24 04:52:51;;;;;;;32.95;27.17;;;3.40;99.90;;;;;;4920335;29;20209;-64
2022/01/24 04:55:22;;;;;;;32.00;27.13;;;3.40;99.90;;;;;;4925995;29;20217;-63
2022/01/24 04:57:54;;;;;;;30.08;25.50;;;3.50;99.90;;;;;;4927035;29;20210;-63
2022/01/24 05:00:25;;;;;;;31.75;26.70;;;3.40;99.90;;;;;;4923728;29;20210;-64
2022/01/24 05:02:56;;;;;;;33.55;27.30;;;3.20;99.90;;;;;;4919372;29;20203;-64
2022/01/24 05:05:28;;;;;;;33.10;28.27;;;3.10;99.90;;;;;;4925755;29;20289;-63
2022/01/24 05:08:03;;;;;;;37.25;27.05;;;3.20;99.90;;;;;;4922774;29;20215;-64
2022/01/24 05:10:41;;;;;;;32.10;26.55;;;3.10;99.90;;;;;;4921981;29;20289;-63
2022/01/24 05:24:47;;;;;;;27.35;19.95;;;3.00;99.90;;;;;;4845674;29;20686;-62
2022/01/24 05:27:17;;;;;;;23.00;19.05;;;3.00;99.90;;;;;;4852334;29;20213;-62
2022/01/24 05:29:50;;;;;;;19.73;17.60;;;2.90;99.90;;;;;;4847768;29;20201;-63
2022/01/24 05:32:21;;;;;;;24.75;18.25;;;2.90;99.90;;;;;;4851757;29;20662;-62
2022/01/24 05:34:52;;;;;;;19.13;17.13;;;2.80;99.90;;;;;;4851082;29;20285;-62
2022/01/24 05:37:23;;;;;;;19.88;17.10;;;2.80;99.90;;;;;;4854799;29;20209;-63
2022/01/24 05:39:54;;;;;;;20.55;16.40;;;2.80;99.90;;;;;;4856743;29;20227;-62
2022/01/24 05:42:25;;;;;;;18.20;16.20;;;2.70;99.90;;;;;;4845107;29;20213;-63
2022/01/24 05:44:58;;;;;;;19.58;16.83;;;2.60;99.90;;;;;;4840579;29;20206;-62
2022/01/24 05:47:30;;;;;;;17.45;15.65;;;2.70;99.90;;;;;;4862701;29;20212;-62
2022/01/24 05:50:02;;;;;;;15.73;14.10;;;2.70;99.90;;;;;;4858395;29;20236;-62
2022/01/24 05:52:33;;;;;;;15.48;13.30;;;2.70;99.90;;;;;;4846036;29;20571;-63
2022/01/24 05:55:05;;;;;;;16.38;14.38;;;2.60;99.90;;;;;;4847059;29;20231;-63
2022/01/24 05:57:36;;;;;;;16.85;12.98;;;2.60;99.90;;;;;;4857067;29;20208;-63
2022/01/24 06:00:19;;;;;;;14.75;13.25;;;2.50;99.90;;;;;;4910416;29;20207;-62
2022/01/24 06:02:50;;;;;;;15.23;13.18;;;2.50;99.90;;;;;;4924920;29;20660;-62
2022/01/24 06:05:21;;;;;;;14.23;12.40;;;2.50;99.90;;;;;;4924944;29;20194;-62
2022/01/24 06:07:52;;;;;;;14.25;12.95;;;2.50;99.90;;;;;;4923666;29;20221;-62
2022/01/24 06:10:23;;;;;;;15.05;12.50;;;2.40;99.90;;;;;;4924604;29;20214;-62
2022/01/24 06:12:54;;;;;;;15.07;12.27;;;2.40;99.90;;;;;;4924173;29;20234;-62
2022/01/24 06:15:27;;;;;;;15.63;12.05;;;2.40;99.90;;;;;;4925429;29;20274;-62
2022/01/24 06:17:58;;;;;;;16.05;12.25;;;2.40;99.90;;;;;;4925165;29;20262;-61
2022/01/24 06:20:57;;;;;;;15.68;13.40;;;2.40;99.90;;;;;;4927773;29;20209;-63
2022/01/24 06:23:28;;;;;;;14.02;12.63;;;2.40;99.90;;;;;;4922399;29;20603;-62
2022/01/24 06:25:59;;;;;;;16.67;14.63;;;2.40;99.90;;;;;;4919110;29;20211;-63
2022/01/24 06:28:30;;;;;;;16.02;13.10;;;2.40;99.90;;;;;;4929743;29;20215;-62
2022/01/24 06:31:02;;;;;;;16.45;14.50;;;2.40;99.90;;;;;;4927853;29;20219;-62
2022/01/24 06:33:33;;;;;;;16.13;13.93;;;2.30;99.90;;;;;;4929471;29;20207;-62
2022/01/24 06:36:04;;;;;;;16.75;14.38;;;2.30;99.90;;;;;;4926259;29;20190;-62
2022/01/24 06:38:35;;;;;;;18.80;16.40;;;2.20;99.90;;;;;;4929614;29;20273;-63
2022/01/24 06:41:05;;;;;;;18.25;15.98;;;2.10;99.90;;;;;;4922925;29;20213;-62
2022/01/24 06:43:36;;;;;;;22.27;18.42;;;2.20;99.90;;;;;;4919966;29;20214;-63
2022/01/24 06:46:09;;;;;;;21.25;17.70;;;2.20;99.90;;;;;;4919825;29;20203;-62
2022/01/24 06:48:39;;;;;;;22.83;17.77;;;2.20;99.90;;;;;;4921568;29;20234;-63
2022/01/24 06:51:14;;;;;;;25.15;21.65;;;2.10;99.90;;;;;;4924273;29;20199;-62
2022/01/24 06:53:45;;;;;;;24.10;20.65;;;2.00;99.90;;;;;;4917006;29;20537;-62
2022/01/24 06:56:16;;;;;;;22.15;19.85;;;2.00;99.90;;;;;;4926405;29;20234;-62
2022/01/24 06:58:47;;;;;;;24.65;19.42;;;2.00;99.90;;;;;;4921130;29;20214;-63
2022/01/24 07:01:21;;;;;;;21.02;17.73;;;1.90;99.90;;;;;;4927892;29;20724;-63
2022/01/24 07:03:53;;;;;;;18.48;16.35;;;1.90;99.90;;;;;;4927912;29;20206;-63
2022/01/24 07:06:24;;;;;;;20.48;17.52;;;1.90;99.90;;;;;;4925774;29;20195;-62
2022/01/24 07:08:56;;;;;;;21.05;16.67;;;1.80;99.90;;;;;;4923700;29;20191;-62
2022/01/24 07:11:27;;;;;;;18.38;15.68;;;1.70;99.90;;;;;;4910412;29;20556;-62
2022/01/24 07:13:58;;;;;;;16.27;14.05;;;1.80;99.90;;;;;;4915315;29;20610;-62
2022/01/24 07:16:48;;;;;;;17.30;14.80;;;1.80;99.90;;;;;;4926975;29;22008;-62
2022/01/24 07:19:18;;;;;;;15.75;14.05;;;1.70;99.90;;;;;;4925640;29;20218;-62
2022/01/24 07:21:49;;;;;;;15.52;13.93;;;1.80;99.90;;;;;;4916579;29;20292;-62
2022/01/24 07:24:20;;;;;;;15.90;14.00;;;1.70;99.90;;;;;;4920383;29;20210;-62
2022/01/24 07:26:51;;;;;;;17.58;15.27;;;1.70;99.90;;;;;;4923297;29;20234;-62
2022/01/24 07:29:22;;;;;;;16.40;14.10;;;1.80;99.90;;;;;;4928137;29;20545;-62
2022/01/24 07:31:55;;;;;;;16.50;14.00;;;1.70;99.90;;;;;;4919639;29;20334;-62
2022/01/24 07:34:26;;;;;;;17.45;14.30;;;1.70;99.90;;;;;;4925797;29;20290;-62
2022/01/24 07:36:57;;;;;;;17.55;13.32;;;1.70;99.90;;;;;;4921393;29;20506;-62
2022/01/24 07:39:28;;;;;;;14.93;13.10;;;1.70;99.90;;;;;;4909997;29;20203;-62
2022/01/24 07:42:06;;;;;;;13.32;11.98;;;1.60;99.90;;;;;;4924310;29;20208;-62
2022/01/24 07:44:38;;;;;;;14.80;12.48;;;1.70;99.90;;;;;;4922281;29;20214;-62
2022/01/24 07:47:11;;;;;;;14.68;11.57;;;1.60;99.90;;;;;;4926446;29;20213;-62
2022/01/24 07:49:41;;;;;;;12.52;11.32;;;1.60;99.90;;;;;;4927611;29;20239;-62
2022/01/24 07:52:13;;;;;;;12.05;9.88;;;1.60;99.90;;;;;;4922091;29;20226;-62
2022/01/24 07:54:44;;;;;;;11.23;9.07;;;1.60;99.90;;;;;;4921527;29;20191;-62
2022/01/24 07:57:14;;;;;;;11.10;8.95;;;1.70;99.90;;;;;;4924367;29;20207;-62
2022/01/24 07:59:45;;;;;;;10.60;9.25;;;1.70;99.90;;;;;;4918169;29;20207;-62
2022/01/24 08:02:18;;;;;;;9.85;7.70;;;1.70;99.90;;;;;;4915589;29;20654;-61
2022/01/24 08:04:49;;;;;;;9.68;7.78;;;1.60;99.90;;;;;;4923919;29;20282;-61
2022/01/24 08:07:27;;;;;;;10.38;8.80;;;1.70;99.90;;;;;;4914112;29;20216;-61
2022/01/24 08:09:58;;;;;;;7.53;6.82;;;1.70;99.90;;;;;;4924916;29;20222;-61
2022/01/24 08:12:33;;;;;;;8.27;7.43;;;1.70;99.90;;;;;;4925828;29;20226;-62
2022/01/24 08:15:05;;;;;;;9.32;7.95;;;1.70;99.90;;;;;;4920100;29;20207;-61
2022/01/24 08:17:41;;;;;;;7.82;7.03;;;1.70;99.90;;;;;;4921891;29;20221;-62
2022/01/24 08:20:13;;;;;;;9.35;7.97;;;1.60;99.90;;;;;;4915915;29;20263;-61
2022/01/24 08:23:05;;;;;;;8.52;7.63;;;1.70;99.90;;;;;;4914902;29;20207;-61
2022/01/24 08:25:36;;;;;;;11.30;8.80;;;1.60;99.90;;;;;;4926967;29;20206;-61
2022/01/24 08:28:07;;;;;;;9.10;7.78;;;1.60;99.90;;;;;;4920902;29;20205;-61
2022/01/24 08:30:38;;;;;;;8.48;7.40;;;1.60;99.90;;;;;;4908889;29;20225;-61
2022/01/24 08:33:12;;;;;;;10.75;6.70;;;1.60;99.90;;;;;;4910640;29;20267;-61
2022/01/24 08:35:45;;;;;;;11.82;8.95;;;1.60;99.90;;;;;;4920405;29;20317;-61
2022/01/24 08:38:16;;;;;;;10.05;7.40;;;1.60;99.90;;;;;;4926375;29;20206;-61
2022/01/24 08:40:49;;;;;;;9.65;8.65;;;1.50;99.90;;;;;;4908485;29;20199;-61
2022/01/24 08:43:35;;;;;;;10.70;8.63;;;1.50;99.90;;;;;;4916181;29;20221;-61
2022/01/24 08:46:07;;;;;;;9.10;7.75;;;1.60;99.90;;;;;;4914536;29;20213;-61
2022/01/24 08:48:40;;;;;;;9.85;8.18;;;1.50;99.90;;;;;;4927537;29;20215;-61
2022/01/24 08:51:16;;;;;;;9.95;8.57;;;1.50;99.90;;;;;;4922499;29;20274;-61
2022/01/24 08:54:08;;;;;;;10.57;8.80;;;1.40;99.90;;;;;;4921508;29;20250;-61
2022/01/24 08:56:42;;;;;;;11.35;10.05;;;1.40;99.90;;;;;;4909183;29;20219;-61
2022/01/24 08:59:15;;;;;;;12.30;10.68;;;1.40;99.90;;;;;;4912430;29;20590;-61
2022/01/24 09:01:47;;;;;;;18.30;11.80;;;1.40;99.90;;;;;;4927774;29;20271;-61
2022/01/24 09:04:19;;;;;;;15.85;11.48;;;1.40;99.90;;;;;;4914770;29;20242;-61
2022/01/24 09:06:51;;;;;;;17.35;12.88;;;1.40;99.90;;;;;;4922972;29;20218;-61
2022/01/24 09:09:22;;;;;;;18.02;12.68;;;1.50;99.90;;;;;;4925960;29;20215;-61
2022/01/24 09:11:53;;;;;;;15.50;12.52;;;1.40;99.90;;;;;;4915884;29;20314;-61
2022/01/24 09:14:24;;;;;;;15.95;12.63;;;1.40;99.90;;;;;;4909347;29;20230;-62
2022/01/24 09:16:55;;;;;;;14.65;12.25;;;1.40;99.90;;;;;;4912654;29;20193;-61
2022/01/24 09:19:28;;;;;;;14.93;11.80;;;1.30;99.90;;;;;;4922123;29;20234;-61
2022/01/24 09:21:59;;;;;;;14.82;12.80;;;1.10;99.90;;;;;;4926145;29;20527;-62
2022/01/24 09:24:29;;;;;;;18.63;12.48;;;1.20;99.90;;;;;;4916015;29;20217;-62
2022/01/24 09:27:01;;;;;;;16.50;12.63;;;1.10;99.90;;;;;;4920285;29;20207;-62
2022/01/24 09:29:32;;;;;;;15.35;12.85;;;1.10;99.90;;;;;;4922650;29;20199;-62
2022/01/24 09:32:02;;;;;;;14.88;12.10;;;1.10;99.90;;;;;;4912501;29;20191;-62
2022/01/24 09:34:35;;;;;;;15.32;12.75;;;1.00;99.90;;;;;;4919967;29;20227;-62
2022/01/24 09:37:06;;;;;;;14.48;11.77;;;1.00;99.90;;;;;;4922035;29;20214;-62
2022/01/24 09:39:37;;;;;;;15.30;11.30;;;0.90;99.90;;;;;;4915778;29;20232;-62
2022/01/24 09:42:27;;;;;;;14.20;12.25;;;0.60;99.90;;;;;;4911233;29;20258;-62
2022/01/24 09:44:58;;;;;;;15.85;11.00;;;0.70;99.90;;;;;;4921452;29;20627;-62
2022/01/24 09:47:30;;;;;;;16.48;11.35;;;0.70;99.90;;;;;;4924697;29;20213;-62
2022/01/24 09:50:02;;;;;;;14.90;11.07;;;0.60;99.90;;;;;;4912498;29;20232;-62
2022/01/24 09:52:33;;;;;;;13.55;9.95;;;0.60;99.90;;;;;;4924167;29;20282;-61
2022/01/24 09:55:04;;;;;;;12.48;10.77;;;0.60;99.90;;;;;;4909346;29;20297;-61
2022/01/24 09:57:35;;;;;;;13.45;10.90;;;0.50;99.90;;;;;;4916508;29;20228;-61
2022/01/24 10:00:09;;;;;;;14.65;10.73;;;0.50;99.90;;;;;;4920645;29;20221;-61
2022/01/24 10:02:41;;;;;;;18.05;10.23;;;0.50;99.90;;;;;;4918976;29;20243;-61
2022/01/24 10:05:20;;;;;;;36.50;12.00;;;0.40;99.90;;;;;;4913196;29;20202;-62
2022/01/24 10:07:56;;;;;;;23.90;11.65;;;0.40;99.90;;;;;;4911752;29;20211;-63
2022/01/24 10:10:33;;;;;;;30.10;13.63;;;0.40;99.90;;;;;;4910058;29;20215;-61
2022/01/24 10:16:29;;;;;;;22.33;11.88;;;0.40;99.90;;;;;;4914505;29;20230;-61
2022/01/24 10:19:12;;;;;;;25.25;14.68;;;0.30;99.90;;;;;;4922736;29;20210;-61
2022/01/24 10:22:02;;;;;;;16.80;11.68;;;0.40;99.90;;;;;;4920494;29;20204;-62
2022/01/24 10:24:35;;;;;;;22.60;12.30;;;0.40;99.90;;;;;;4915829;29;20213;-61
2022/01/24 10:27:15;;;;;;;14.32;11.52;;;0.40;99.90;;;;;;4919799;29;20280;-61
2022/01/24 10:29:51;;;;;;;17.02;12.63;;;0.40;99.90;;;;;;4924818;29;20209;-61
2022/01/24 10:32:40;;;;;;;14.20;11.82;;;0.30;99.90;;;;;;4914424;29;20214;-61
2022/01/24 10:35:26;;;;;;;17.42;11.48;;;0.30;99.90;;;;;;4915557;29;20298;-61
2022/01/24 10:38:24;;;;;;;17.45;10.90;;;0.30;99.90;;;;;;4923802;29;20215;-61
2022/01/24 10:41:08;;;;;;;15.48;11.25;;;0.20;99.90;;;;;;4917132;29;20207;-62
2022/01/24 10:43:41;;;;;;;13.77;10.23;;;0.20;99.90;;;;;;4918684;29;20226;-61
2022/01/24 10:46:13;;;;;;;13.50;10.70;;;0.30;99.90;;;;;;4919552;29;20291;-62
2022/01/24 10:48:45;;;;;;;15.30;11.70;;;0.20;99.90;;;;;;4913416;29;20199;-61
2022/01/24 10:51:21;;;;;;;14.35;10.13;;;0.20;99.90;;;;;;4889882;29;20205;-61
2022/01/24 10:53:56;;;;;;;15.20;11.00;;;0.20;99.90;;;;;;4902672;29;20305;-62
2022/01/24 10:56:34;;;;;;;18.75;14.05;;;0.30;99.90;;;;;;4907244;29;20207;-61
2022/01/24 10:59:15;;;;;;;17.23;13.10;;;0.30;99.90;;;;;;4905880;29;20211;-61
2022/01/24 11:01:47;;;;;;;17.17;12.07;;;0.30;99.90;;;;;;4895141;29;20294;-61
2022/01/24 11:04:19;;;;;;;16.15;12.05;;;0.30;99.90;;;;;;4900990;29;20207;-62
2022/01/24 11:06:52;;;;;;;16.08;11.55;;;0.30;99.90;;;;;;4899158;29;20204;-62
2022/01/24 11:09:25;;;;;;;15.05;11.48;;;0.30;99.90;;;;;;4902330;29;20306;-61
2022/01/24 11:11:58;;;;;;;12.27;10.30;;;0.40;99.90;;;;;;4898178;29;20204;-62
2022/01/24 11:14:31;;;;;;;16.83;11.20;;;0.40;99.90;;;;;;4896618;29;20231;-62
2022/01/24 11:17:02;;;;;;;15.40;9.45;;;0.50;99.90;;;;;;4894070;29;20214;-62
2022/01/24 11:19:39;;;;;;;24.95;12.10;;;0.60;99.90;;;;;;4909688;29;20211;-61
2022/01/24 11:22:19;;;;;;;19.60;10.25;;;0.60;99.90;;;;;;4908110;29;20235;-61
2022/01/24 11:24:56;;;;;;;15.80;9.25;;;0.50;99.90;;;;;;4908943;29;20206;-61
2022/01/24 11:27:44;;;;;;;21.88;10.95;;;0.60;99.90;;;;;;4895059;29;20196;-62
2022/01/24 11:30:16;;;;;;;21.42;10.90;;;0.50;99.90;;;;;;4900157;29;20231;-61
2022/01/24 11:32:52;;;;;;;31.05;12.30;;;0.60;99.90;;;;;;4897673;29;20224;-62
2022/01/24 11:35:40;;;;;;;31.40;11.95;;;0.70;99.90;;;;;;4904122;29;20231;-61
2022/01/24 11:38:29;;;;;;;28.85;11.32;;;0.70;99.90;;;;;;4906234;29;20272;-61
2022/01/24 11:41:04;;;;;;;13.73;9.30;;;0.70;99.90;;;;;;4906044;29;20282;-61
2022/01/24 11:43:37;;;;;;;21.55;10.63;;;0.70;99.90;;;;;;4909379;29;20207;-62
2022/01/24 11:46:37;;;;;;;15.35;9.90;;;0.70;99.90;;;;;;4891159;29;20215;-61
2022/01/24 11:49:10;;;;;;;18.65;11.57;;;0.70;99.90;;;;;;4893288;29;20318;-62
2022/01/24 11:51:45;;;;;;;14.27;10.82;;;0.80;99.90;;;;;;4910815;29;20208;-62
2022/01/24 11:54:49;;;;;;;15.55;9.82;;;0.90;99.90;;;;;;4909594;29;20689;-62
2022/01/24 11:57:27;;;;;;;13.95;9.95;;;0.90;99.90;;;;;;4913142;29;20206;-62
2022/01/24 12:00:21;;;;;;;11.43;9.77;;;1.00;99.90;;;;;;4918320;29;20204;-62
2022/01/24 12:02:53;;;;;;;12.48;10.60;;;1.00;99.90;;;;;;4924524;29;20204;-62
2022/01/24 12:05:26;;;;;;;13.07;10.68;;;1.00;99.90;;;;;;4912283;29;20214;-62
2022/01/24 12:08:00;;;;;;;12.27;9.27;;;0.90;99.90;;;;;;4909549;29;20212;-61
2022/01/24 12:10:51;;;;;;;12.85;9.88;;;0.90;99.90;;;;;;4912188;29;20204;-62
2022/01/24 12:13:27;;;;;;;10.55;8.77;;;0.80;99.90;;;;;;4921478;29;20245;-62
2022/01/24 12:16:00;;;;;;;11.60;9.68;;;0.70;99.90;;;;;;4926912;29;20230;-61
2022/01/24 12:19:07;;;;;;;11.18;9.57;;;0.70;99.90;;;;;;4911622;29;20302;-62
2022/01/24 12:21:39;;;;;;;11.63;9.80;;;0.60;99.90;;;;;;4925836;29;20273;-61
2022/01/24 12:24:12;;;;;;;10.25;9.02;;;0.70;99.90;;;;;;4919354;29;20226;-61
2022/01/24 12:27:04;;;;;;;11.45;9.27;;;0.60;99.90;;;;;;4911853;29;20203;-61
2022/01/24 12:29:43;;;;;;;12.25;9.73;;;0.60;99.90;;;;;;4921210;29;20206;-60
2022/01/24 12:32:24;;;;;;;11.02;8.52;;;0.60;99.90;;;;;;4924325;29;20207;-61
2022/01/24 12:34:55;;;;;;;13.30;9.60;;;0.60;99.90;;;;;;4921642;29;20245;-61
2022/01/24 12:37:29;;;;;;;12.77;10.40;;;0.50;99.90;;;;;;4916286;29;20210;-60
2022/01/24 12:40:06;;;;;;;14.95;9.88;;;0.50;99.90;;;;;;4924207;29;20537;-62
2022/01/24 12:42:48;;;;;;;11.80;9.65;;;0.50;99.90;;;;;;4909245;29;20203;-61
2022/01/24 12:48:49;;;;;;;12.80;9.10;;;0.50;99.90;;;;;;4867105;29;20228;-61
2022/01/24 12:51:22;;;;;;;11.48;9.52;;;0.60;99.90;;;;;;4869721;29;20362;-61
2022/01/24 12:53:53;;;;;;;12.50;9.20;;;0.60;99.90;;;;;;4868016;29;20209;-61
2022/01/24 12:56:27;;;;;;;11.30;8.40;;;0.60;99.90;;;;;;4867961;29;20248;-61
2022/01/24 12:58:58;;;;;;;10.10;9.02;;;0.50;99.90;;;;;;4867710;29;20216;-61
2022/01/24 13:01:35;;;;;;;11.63;9.70;;;0.50;99.90;;;;;;4868698;29;20303;-61
2022/01/24 13:04:10;;;;;;;15.98;10.25;;;0.50;99.90;;;;;;4868158;29;20209;-61
2022/01/24 13:06:46;;;;;;;1002.30;180.57;;;0.60;99.90;;;;;;4869149;29;20215;-61
2022/01/24 13:09:19;;;;;;;32.10;13.90;;;0.60;99.90;;;;;;4867866;29;20193;-61
2022/01/24 13:11:53;;;;;;;12.85;9.57;;;0.60;99.90;;;;;;4868925;29;20223;-61
2022/01/24 13:14:30;;;;;;;12.80;10.07;;;0.50;99.90;;;;;;4858247;29;20216;-62
2022/01/24 13:22:48;;;;;;;10.75;8.73;;;0.30;99.90;;;;;;4918416;29;20342;-61
2022/01/24 13:25:23;;;;;;;12.25;9.15;;;0.30;99.90;;;;;;4907256;29;20211;-61
2022/01/24 13:27:56;;;;;;;12.15;9.70;;;0.30;99.90;;;;;;4925710;29;20202;-61
2022/01/24 13:30:29;;;;;;;13.75;10.75;;;0.30;99.90;;;;;;4913014;29;20542;-61
2022/01/24 13:33:03;;;;;;;10.77;9.13;;;0.30;99.90;;;;;;4907757;29;20215;-61
2022/01/24 13:35:36;;;;;;;10.90;8.85;;;0.30;99.90;;;;;;4916895;29;20547;-61
2022/01/24 13:38:12;;;;;;;10.18;9.07;;;0.30;99.90;;;;;;4916962;29;20210;-62
2022/01/24 13:40:52;;;;;;;11.68;10.60;;;0.20;99.90;;;;;;4920038;29;20333;-61
2022/01/24 13:43:40;;;;;;;13.95;10.65;;;0.20;99.90;;;;;;4918304;29;20283;-62
2022/01/24 13:46:14;;;;;;;11.48;9.27;;;0.30;99.90;;;;;;4926256;29;20628;-61
2022/01/24 13:48:50;;;;;;;11.85;9.48;;;0.20;99.90;;;;;;4925699;29;20219;-61
2022/01/24 13:51:34;;;;;;;11.23;9.05;;;0.20;99.90;;;;;;4924623;29;20214;-61
2022/01/24 13:54:07;;;;;;;10.88;8.40;;;0.20;99.90;;;;;;4917261;29;20716;-62
2022/01/24 13:56:43;;;;;;;24.50;11.60;;;0.10;99.90;;;;;;4910138;29;20298;-60
2022/01/24 13:59:18;;;;;;;544.53;83.85;;;0.20;99.90;;;;;;4915986;29;20274;-61
2022/01/24 14:02:02;;;;;;;189.32;32.70;;;0.20;99.90;;;;;;4910920;29;20211;-61
2022/01/24 14:04:38;;;;;;;10.13;9.02;;;0.30;99.90;;;;;;4910099;29;20210;-61
2022/01/24 14:07:11;;;;;;;10.90;8.15;;;0.30;99.90;;;;;;4917110;29;20292;-61
2022/01/24 14:09:45;;;;;;;10.93;8.80;;;0.30;99.90;;;;;;4914309;29;20278;-60
2022/01/24 14:12:19;;;;;;;11.73;9.30;;;0.30;99.90;;;;;;4916639;29;20635;-61
2022/01/24 14:15:02;;;;;;;12.18;9.35;;;0.40;99.90;;;;;;4922202;29;20660;-61
2022/01/24 14:17:44;;;;;;;10.93;9.73;;;0.40;99.90;;;;;;4914625;29;20641;-61
2022/01/24 14:20:18;;;;;;;11.95;9.93;;;0.40;99.90;;;;;;4911981;29;20343;-62
2022/01/24 14:22:51;;;;;;;11.13;8.48;;;0.50;99.90;;;;;;4923905;29;20210;-62
2022/01/24 14:25:25;;;;;;;12.05;8.98;;;0.40;99.90;;;;;;4913102;29;20704;-62
2022/01/24 14:27:58;;;;;;;13.35;10.30;;;0.50;99.90;;;;;;4912373;29;20233;-61
2022/01/24 14:30:38;;;;;;;15.82;10.68;;;0.50;99.90;;;;;;4914884;29;20265;-61